KOKC/OKC METAR and TAF weather

Enter ICAO airport designator
Station Type Date Time Source
KOKC METAR 2023/02/06 17:52 UTC NOAA

KOKC 061752Z 19021G29KT 10SM FEW180 SCT250 18/09 A2982 RMK AO2 PK WND 18030/1656 SLP092 T01830094 10183 20072 58011


Station Type Date Time Source
KOKC Decoded METAR 2023/02/06 17:52 UTC NOAA

WILL ROGERS WORLD AIRPORT, OK, United States (KOKC) 35-23N 97-36W 390M
Feb 06, 2023 - 12:52 PM EST / 2023.02.06 1752 UTC
Wind: from the S (190 degrees) at 24 MPH (21 KT) gusting to 33 MPH (29 KT):0
Visibility: 10 mile(s):0
Sky conditions: partly cloudy
Temperature: 64.9 F (18.3 C)
Dew Point: 48.9 F (9.4 C)
Relative Humidity: 56%
Pressure (altimeter): 29.82 in. Hg (1009 hPa)
Pressure tendency: 0.03 inches (1.1 hPa) lower than three hours ago
ob: KOKC 061752Z 19021G29KT 10SM FEW180 SCT250 18/09 A2982 RMK AO2 PK WND 18030/1656 SLP092 T01830094 10183 20072 58011
cycle: 18

Station Type Date Time Source
KOKC TAF 2023/02/06 18:51 UTC NOAA

KOKC 061722Z 0618/0718 20016G29KT P6SM BKN240
FM062300 19008KT P6SM BKN200
FM070400 35013G20KT P6SM BKN050 PROB30 0706/0712 6SM -SHRA OVC025
FM071200 35014G22KT P6SM OVC050 PROB30 0712/0718 6SM -SHRA OVC025

Example: see airport list